createdAt,value
2018-03-22T00:00:58.038Z,0.00
2018-03-22T00:01:58.021Z,0.00
2018-03-22T00:02:58.031Z,0.00
2018-03-22T00:03:58.033Z,0.00
2018-03-22T00:04:58.040Z,0.00
2018-03-22T00:05:58.031Z,0.00
2018-03-22T00:06:58.028Z,0.00
2018-03-22T00:07:58.142Z,0.00
2018-03-22T00:08:58.028Z,0.00
2018-03-22T00:09:58.026Z,0.00
2018-03-22T00:10:58.024Z,0.00
2018-03-22T00:11:58.022Z,0.00
2018-03-22T00:12:58.021Z,0.00
2018-03-22T00:13:58.021Z,0.00
2018-03-22T00:14:58.018Z,0.00
2018-03-22T00:15:58.017Z,0.00
2018-03-22T00:16:58.006Z,0.00
2018-03-22T00:17:58.030Z,0.00
2018-03-22T00:18:58.010Z,0.00
2018-03-22T00:19:58.010Z,0.00
2018-03-22T00:20:58.122Z,0.00
2018-03-22T00:21:58.006Z,0.00
2018-03-22T00:22:58.006Z,0.00
2018-03-22T00:23:58.003Z,0.00
2018-03-22T00:24:58.002Z,0.00
2018-03-22T00:25:58.002Z,0.00
2018-03-22T00:26:58.006Z,0.00
2018-03-22T00:27:57.998Z,0.00
2018-03-22T00:28:57.998Z,0.00
2018-03-22T00:29:57.993Z,0.00
2018-03-22T00:30:57.986Z,0.00
2018-03-22T00:31:57.987Z,0.00
2018-03-22T00:32:57.995Z,0.00
2018-03-22T00:33:58.078Z,0.00
2018-03-22T00:34:57.981Z,0.00
2018-03-22T00:35:57.986Z,0.00
2018-03-22T00:36:57.983Z,0.00
2018-03-22T00:37:57.984Z,0.00
2018-03-22T00:38:57.981Z,0.00
2018-03-22T00:39:57.980Z,0.00
2018-03-22T00:40:57.979Z,0.00
2018-03-22T00:41:57.972Z,0.00
2018-03-22T00:42:57.973Z,0.00
2018-03-22T00:43:57.984Z,0.00
2018-03-22T00:44:57.971Z,0.00
2018-03-22T00:45:57.976Z,0.00
2018-03-22T00:46:57.966Z,0.00
2018-03-22T00:47:57.969Z,0.00
2018-03-22T00:48:57.956Z,0.00
2018-03-22T00:49:57.968Z,0.00
2018-03-22T00:50:57.957Z,0.00
2018-03-22T00:51:58.637Z,0.00
2018-03-22T00:52:57.956Z,0.00
2018-03-22T00:53:57.955Z,0.00
2018-03-22T00:54:57.960Z,0.00
2018-03-22T00:55:57.955Z,0.00
2018-03-22T00:56:57.955Z,0.00
2018-03-22T00:57:57.952Z,0.00
2018-03-22T00:58:57.946Z,0.00
2018-03-22T00:59:57.946Z,0.00
2018-03-22T01:00:57.951Z,0.00
2018-03-22T01:01:57.946Z,0.00
2018-03-22T01:02:58.641Z,0.00
2018-03-22T01:03:57.939Z,0.00
2018-03-22T01:04:57.964Z,0.00
2018-03-22T01:05:57.938Z,0.00
2018-03-22T01:06:57.936Z,0.00
2018-03-22T01:07:57.934Z,0.00
2018-03-22T01:08:57.936Z,0.00
2018-03-22T01:09:57.938Z,0.00
2018-03-22T01:10:57.928Z,0.00
2018-03-22T01:11:57.927Z,0.00
2018-03-22T01:12:57.931Z,0.00
2018-03-22T01:13:57.923Z,0.00
2018-03-22T01:14:57.987Z,0.00
2018-03-22T01:15:57.927Z,0.00
2018-03-22T01:16:57.921Z,0.00
2018-03-22T01:17:57.919Z,0.00
2018-03-22T01:18:57.913Z,0.00
2018-03-22T01:19:57.923Z,0.00
2018-03-22T01:20:57.919Z,0.00
2018-03-22T01:21:57.914Z,0.00
2018-03-22T01:22:57.917Z,0.00
2018-03-22T01:23:57.913Z,0.00
2018-03-22T01:24:57.918Z,0.00
2018-03-22T01:25:57.903Z,0.00
2018-03-22T01:26:57.906Z,0.00
2018-03-22T01:27:57.936Z,0.00
2018-03-22T01:28:57.910Z,0.00
2018-03-22T01:29:57.900Z,0.00
2018-03-22T01:30:57.902Z,0.00
2018-03-22T01:31:57.903Z,0.00
2018-03-22T01:32:57.897Z,0.00
2018-03-22T01:33:57.906Z,0.00
2018-03-22T01:34:57.891Z,0.00
2018-03-22T01:35:57.892Z,0.00
2018-03-22T01:36:57.902Z,0.00
2018-03-22T01:37:57.887Z,0.00
2018-03-22T01:38:57.891Z,0.00
2018-03-22T01:39:57.886Z,0.00
2018-03-22T01:40:57.886Z,0.00
2018-03-22T01:41:57.884Z,0.00
2018-03-22T01:42:57.888Z,0.00
2018-03-22T01:43:57.882Z,0.00
2018-03-22T01:44:57.893Z,0.00
2018-03-22T01:45:57.883Z,0.00
2018-03-22T01:46:57.876Z,0.00
2018-03-22T01:47:57.874Z,0.00
2018-03-22T01:48:57.869Z,0.00
2018-03-22T01:49:57.861Z,0.00
2018-03-22T01:50:57.870Z,0.00
2018-03-22T01:51:57.880Z,0.00
2018-03-22T01:52:57.870Z,0.00
2018-03-22T01:53:57.860Z,0.00
2018-03-22T01:54:57.855Z,0.00
2018-03-22T01:55:57.860Z,0.00
2018-03-22T01:56:57.866Z,0.00
2018-03-22T01:57:57.861Z,0.00
2018-03-22T01:58:57.862Z,0.00
2018-03-22T01:59:57.863Z,0.00
2018-03-22T02:00:57.900Z,0.00
2018-03-22T02:01:57.854Z,0.00
2018-03-22T02:02:57.855Z,0.00
2018-03-22T02:03:57.837Z,0.00
2018-03-22T02:04:57.845Z,0.00
2018-03-22T02:05:57.853Z,0.00
2018-03-22T02:06:57.839Z,0.00
2018-03-22T02:07:57.848Z,0.00
2018-03-22T02:08:57.843Z,0.00
2018-03-22T02:09:57.833Z,0.00
2018-03-22T02:10:57.845Z,0.00
2018-03-22T02:11:57.843Z,0.00
2018-03-22T02:12:57.839Z,0.00
2018-03-22T02:13:57.828Z,0.00
2018-03-22T02:14:57.832Z,0.00
2018-03-22T02:15:57.841Z,0.00
2018-03-22T02:16:57.834Z,0.00
2018-03-22T02:17:57.820Z,0.00
2018-03-22T02:18:57.817Z,0.00
2018-03-22T02:19:57.820Z,0.00
2018-03-22T02:20:57.826Z,0.00
2018-03-22T02:21:57.818Z,0.00
2018-03-22T02:22:57.809Z,0.00
2018-03-22T02:23:57.826Z,0.00
2018-03-22T02:24:57.822Z,0.00
2018-03-22T02:25:57.823Z,0.00
2018-03-22T02:26:57.810Z,0.00
2018-03-22T02:27:57.812Z,0.00
2018-03-22T02:28:57.811Z,0.00
2018-03-22T02:29:57.803Z,0.00
2018-03-22T02:30:57.830Z,0.00
2018-03-22T02:31:57.803Z,0.00
2018-03-22T02:32:57.802Z,0.00
2018-03-22T02:33:57.800Z,0.00
2018-03-22T02:34:57.794Z,0.00
2018-03-22T02:35:57.799Z,0.00
2018-03-22T02:36:57.790Z,0.00
2018-03-22T02:37:57.803Z,0.00
2018-03-22T02:38:57.798Z,0.00
2018-03-22T02:39:58.665Z,0.00
2018-03-22T02:40:57.794Z,0.00
2018-03-22T02:41:57.808Z,0.00
2018-03-22T02:42:57.794Z,0.00
2018-03-22T02:43:57.791Z,0.00
2018-03-22T02:44:57.802Z,0.00
2018-03-22T02:45:57.782Z,0.00
2018-03-22T02:46:57.785Z,0.00
2018-03-22T02:47:57.782Z,0.00
2018-03-22T02:48:57.783Z,0.00
2018-03-22T02:49:57.778Z,0.00
2018-03-22T02:50:57.766Z,0.00
2018-03-22T02:51:57.776Z,0.00
2018-03-22T02:52:57.771Z,0.00
2018-03-22T02:53:57.772Z,0.00
2018-03-22T02:54:57.797Z,0.00
2018-03-22T02:55:57.770Z,0.00
2018-03-22T02:56:57.768Z,0.00
2018-03-22T02:57:57.764Z,0.00
2018-03-22T02:58:57.764Z,0.00
2018-03-22T02:59:57.761Z,0.00
2018-03-22T03:00:57.765Z,0.00
2018-03-22T03:01:57.762Z,0.00
2018-03-22T03:02:57.754Z,0.00
2018-03-22T03:03:57.754Z,0.00
2018-03-22T03:04:57.756Z,0.00
2018-03-22T03:05:57.749Z,0.00
2018-03-22T03:06:57.751Z,0.00
2018-03-22T03:07:57.744Z,0.00
2018-03-22T03:08:57.746Z,0.00
2018-03-22T03:09:57.750Z,0.00
2018-03-22T03:10:57.744Z,0.00
2018-03-22T03:11:57.747Z,0.00
2018-03-22T03:12:57.800Z,0.00
2018-03-22T03:13:57.744Z,0.00
2018-03-22T03:14:57.749Z,0.00
2018-03-22T03:15:57.731Z,0.00
2018-03-22T03:16:57.737Z,0.00
2018-03-22T03:17:57.731Z,0.00
2018-03-22T03:18:57.737Z,0.00
2018-03-22T03:19:57.731Z,0.00
2018-03-22T03:20:57.731Z,0.00
2018-03-22T03:21:57.729Z,0.00
2018-03-22T03:22:57.727Z,0.00
2018-03-22T03:23:57.727Z,0.00
2018-03-22T03:24:57.726Z,0.00
2018-03-22T03:25:58.660Z,0.00
2018-03-22T03:26:57.733Z,0.00
2018-03-22T03:27:57.718Z,0.00
2018-03-22T03:28:57.726Z,0.00
2018-03-22T03:29:57.719Z,0.00
2018-03-22T03:30:57.732Z,0.00
2018-03-22T03:31:57.717Z,0.00
2018-03-22T03:32:57.712Z,0.00
2018-03-22T03:33:57.712Z,0.00
2018-03-22T03:34:57.714Z,0.00
2018-03-22T03:35:57.716Z,0.00
2018-03-22T03:36:57.712Z,0.00
2018-03-22T03:37:57.716Z,0.00
2018-03-22T03:38:57.814Z,0.00
2018-03-22T03:39:57.704Z,0.00
2018-03-22T03:40:57.700Z,0.00
2018-03-22T03:41:57.701Z,0.00
2018-03-22T03:42:57.709Z,0.00
2018-03-22T03:43:57.702Z,0.00
2018-03-22T03:44:57.700Z,0.00
2018-03-22T03:45:57.696Z,0.00
2018-03-22T03:46:57.700Z,0.00
2018-03-22T03:47:57.694Z,0.00
2018-03-22T03:48:57.695Z,0.00
2018-03-22T03:49:57.688Z,0.00
2018-03-22T03:50:57.685Z,0.00
2018-03-22T03:51:57.681Z,0.00
2018-03-22T03:52:57.681Z,0.00
2018-03-22T03:53:57.688Z,0.00
2018-03-22T03:54:57.686Z,0.00
2018-03-22T03:55:57.686Z,0.00
2018-03-22T03:56:57.681Z,0.00
2018-03-22T03:57:57.673Z,0.00
2018-03-22T03:58:57.676Z,0.00
2018-03-22T03:59:57.674Z,0.00
2018-03-22T04:00:57.703Z,0.00
2018-03-22T04:01:57.671Z,0.00
2018-03-22T04:02:57.661Z,0.00
2018-03-22T04:03:57.670Z,0.00
2018-03-22T04:04:57.664Z,0.00
2018-03-22T04:05:57.661Z,0.00
2018-03-22T04:06:57.655Z,0.00
2018-03-22T04:07:57.647Z,0.00
2018-03-22T04:08:57.654Z,0.00
2018-03-22T04:09:57.680Z,0.00
2018-03-22T04:10:57.652Z,0.00
2018-03-22T04:11:57.652Z,0.00
2018-03-22T04:12:57.667Z,0.00
2018-03-22T04:13:57.644Z,0.00
2018-03-22T04:14:57.647Z,0.00
2018-03-22T04:15:57.646Z,0.00
2018-03-22T04:16:57.653Z,0.00
2018-03-22T04:17:57.648Z,0.00
2018-03-22T04:18:57.641Z,0.00
2018-03-22T04:19:57.631Z,0.00
2018-03-22T04:20:57.643Z,0.00
2018-03-22T04:21:57.642Z,0.00
2018-03-22T04:22:57.640Z,0.00
2018-03-22T04:23:57.619Z,0.00
2018-03-22T04:24:57.632Z,0.00
2018-03-22T04:25:57.623Z,0.00
2018-03-22T04:26:57.617Z,0.00
2018-03-22T04:27:57.619Z,0.00
2018-03-22T04:28:57.622Z,0.00
2018-03-22T04:29:57.626Z,0.00
2018-03-22T04:30:57.627Z,0.00
2018-03-22T04:31:57.625Z,0.00
2018-03-22T04:32:57.617Z,0.00
2018-03-22T04:33:57.621Z,0.00
2018-03-22T04:34:57.618Z,0.00
2018-03-22T04:35:57.606Z,0.00
2018-03-22T04:36:57.606Z,0.00
2018-03-22T04:37:57.605Z,0.00
2018-03-22T04:38:57.596Z,0.00
2018-03-22T04:39:57.602Z,0.00
2018-03-22T04:40:57.594Z,0.00
2018-03-22T04:41:57.603Z,0.00
2018-03-22T04:42:58.172Z,0.00
2018-03-22T04:43:57.608Z,0.00
2018-03-22T04:44:57.596Z,0.00
2018-03-22T04:45:57.604Z,0.00
2018-03-22T04:46:57.588Z,0.00
2018-03-22T04:47:57.594Z,0.00
2018-03-22T04:48:57.593Z,0.00
2018-03-22T04:49:57.585Z,0.00
2018-03-22T04:50:57.584Z,0.00
2018-03-22T04:51:57.580Z,0.00
2018-03-22T04:52:57.575Z,0.00
2018-03-22T04:53:58.175Z,0.00
2018-03-22T04:54:57.581Z,0.00
2018-03-22T04:55:57.574Z,0.00
2018-03-22T04:56:57.579Z,0.00
2018-03-22T04:57:57.576Z,0.00
2018-03-22T04:58:57.588Z,0.00
2018-03-22T04:59:57.594Z,0.00
2018-03-22T05:00:57.573Z,0.00
2018-03-22T05:01:57.570Z,0.00
2018-03-22T05:02:57.567Z,0.00
2018-03-22T05:03:57.559Z,0.00
2018-03-22T05:04:57.561Z,0.00
2018-03-22T05:05:57.569Z,0.00
2018-03-22T05:06:57.594Z,0.00
2018-03-22T05:07:57.555Z,0.00
2018-03-22T05:08:57.553Z,0.00
2018-03-22T05:09:57.551Z,0.00
2018-03-22T05:10:57.548Z,0.00
2018-03-22T05:11:57.551Z,0.00
2018-03-22T05:12:57.552Z,0.00
2018-03-22T05:13:57.538Z,0.00
2018-03-22T05:14:57.543Z,0.00
2018-03-22T05:15:57.551Z,0.00
2018-03-22T05:16:57.551Z,0.00
2018-03-22T05:17:57.543Z,0.00
2018-03-22T05:18:57.540Z,0.00
2018-03-22T05:19:57.536Z,0.00
2018-03-22T05:20:57.538Z,0.00
2018-03-22T05:21:57.535Z,0.00
2018-03-22T05:22:57.528Z,0.00
2018-03-22T05:23:57.522Z,0.00
2018-03-22T05:24:57.530Z,0.00
2018-03-22T05:25:57.524Z,0.00
2018-03-22T05:26:57.547Z,0.00
2018-03-22T05:27:57.520Z,0.00
2018-03-22T05:28:57.525Z,0.00
2018-03-22T05:29:57.628Z,0.00
2018-03-22T05:30:57.520Z,0.00
2018-03-22T05:31:57.524Z,0.00
2018-03-22T05:32:57.512Z,0.00
2018-03-22T05:33:57.502Z,0.00
2018-03-22T05:34:57.514Z,0.00
2018-03-22T05:35:57.508Z,0.00
2018-03-22T05:36:57.504Z,0.00
2018-03-22T05:37:57.509Z,0.00
2018-03-22T05:38:57.515Z,0.00
2018-03-22T05:39:57.506Z,0.00
2018-03-22T05:40:57.501Z,0.00
2018-03-22T05:41:57.496Z,0.00
2018-03-22T05:42:57.489Z,0.00
2018-03-22T05:43:57.492Z,0.00
2018-03-22T05:44:57.518Z,0.00
2018-03-22T05:45:57.500Z,0.00
2018-03-22T05:46:57.494Z,0.00
2018-03-22T05:47:57.487Z,0.00
2018-03-22T05:48:57.500Z,0.00
2018-03-22T05:49:57.487Z,0.00
2018-03-22T05:50:57.497Z,0.00
2018-03-22T05:51:57.484Z,5.63
2018-03-22T05:52:57.484Z,5.63
2018-03-22T05:53:57.469Z,5.63
2018-03-22T05:54:57.474Z,5.63
2018-03-22T05:55:57.491Z,5.63
2018-03-22T05:56:57.470Z,5.63
2018-03-22T05:57:57.464Z,5.63
2018-03-22T05:58:57.471Z,5.63
2018-03-22T05:59:57.472Z,5.63
2018-03-22T06:00:57.465Z,5.63
2018-03-22T06:01:57.464Z,5.63
2018-03-22T06:02:57.463Z,5.63
2018-03-22T06:03:57.543Z,11.25
2018-03-22T06:04:57.470Z,11.25
2018-03-22T06:05:57.452Z,5.63
2018-03-22T06:06:57.449Z,11.25
2018-03-22T06:07:57.460Z,11.25
2018-03-22T06:08:57.452Z,22.50
2018-03-22T06:09:57.447Z,16.88
2018-03-22T06:10:57.454Z,22.50
2018-03-22T06:11:57.449Z,16.88
2018-03-22T06:12:57.453Z,11.25
2018-03-22T06:13:57.445Z,11.25
2018-03-22T06:14:57.444Z,11.25
2018-03-22T06:15:57.442Z,11.25
2018-03-22T06:16:57.454Z,11.25
2018-03-22T06:17:57.430Z,16.88
2018-03-22T06:18:58.189Z,16.88
2018-03-22T06:19:57.422Z,16.88
2018-03-22T06:20:57.433Z,16.88
2018-03-22T06:21:57.430Z,16.88
2018-03-22T06:22:57.428Z,16.88
2018-03-22T06:23:57.425Z,11.25
2018-03-22T06:24:57.437Z,11.25
2018-03-22T06:25:57.429Z,11.25
2018-03-22T06:26:58.185Z,11.25
2018-03-22T06:27:57.422Z,16.88
2018-03-22T06:28:57.420Z,16.88
2018-03-22T06:29:57.412Z,11.25
2018-03-22T06:30:57.410Z,5.63
2018-03-22T06:31:57.410Z,11.25
2018-03-22T06:32:57.414Z,11.25
2018-03-22T06:33:57.418Z,11.25
2018-03-22T06:34:57.414Z,11.25
2018-03-22T06:35:57.421Z,11.25
2018-03-22T06:36:57.402Z,16.88
2018-03-22T06:37:57.402Z,16.88
2018-03-22T06:38:57.402Z,22.50
2018-03-22T06:39:57.476Z,16.88
2018-03-22T06:40:57.410Z,11.25
2018-03-22T06:41:57.407Z,16.88
2018-03-22T06:42:57.396Z,22.50
2018-03-22T06:43:57.391Z,22.50
2018-03-22T06:44:57.393Z,22.50
2018-03-22T06:45:57.393Z,22.50
2018-03-22T06:46:57.395Z,16.88
2018-03-22T06:47:57.390Z,16.88
2018-03-22T06:48:57.410Z,16.88
2018-03-22T06:49:57.395Z,16.88
2018-03-22T06:50:57.394Z,11.25
2018-03-22T06:51:57.390Z,11.25
2018-03-22T06:52:57.381Z,16.88
2018-03-22T06:53:57.387Z,11.25
2018-03-22T06:54:57.367Z,11.25
2018-03-22T06:55:57.378Z,16.88
2018-03-22T06:56:57.425Z,22.50
2018-03-22T06:57:57.414Z,28.13
2018-03-22T06:58:57.375Z,22.50
2018-03-22T06:59:57.386Z,16.88
2018-03-22T07:00:57.362Z,16.88
2018-03-22T07:01:57.469Z,16.88
2018-03-22T07:02:57.376Z,16.88
2018-03-22T07:03:57.361Z,22.50
2018-03-22T07:04:57.356Z,22.50
2018-03-22T07:05:57.354Z,28.13
2018-03-22T07:06:57.356Z,28.13
2018-03-22T07:07:57.506Z,28.13
2018-03-22T07:08:57.348Z,22.50
2018-03-22T07:09:57.345Z,22.50
2018-03-22T07:10:57.359Z,22.50
2018-03-22T07:11:57.353Z,28.13
2018-03-22T07:12:57.344Z,39.38
2018-03-22T07:13:57.368Z,33.75
2018-03-22T07:14:57.335Z,28.13
2018-03-22T07:15:57.340Z,16.88
2018-03-22T07:16:57.331Z,22.50
2018-03-22T07:17:57.340Z,16.88
2018-03-22T07:18:57.364Z,16.88
2018-03-22T07:19:57.335Z,16.88
2018-03-22T07:20:57.332Z,28.13
2018-03-22T07:21:57.323Z,28.13
2018-03-22T07:22:57.331Z,28.13
2018-03-22T07:23:57.339Z,33.75
2018-03-22T07:24:57.336Z,33.75
2018-03-22T07:25:57.329Z,22.50
2018-03-22T07:26:57.323Z,22.50
2018-03-22T07:27:57.336Z,28.13
2018-03-22T07:28:57.312Z,39.38
2018-03-22T07:29:57.318Z,67.50
2018-03-22T07:30:57.316Z,56.25
2018-03-22T07:31:57.306Z,45.00
2018-03-22T07:32:57.319Z,39.38
2018-03-22T07:33:57.428Z,50.63
2018-03-22T07:34:57.309Z,50.63
2018-03-22T07:35:57.314Z,45.00
2018-03-22T07:36:57.326Z,45.00
2018-03-22T07:37:57.390Z,67.50
2018-03-22T07:38:57.305Z,50.63
2018-03-22T07:39:57.301Z,45.00
2018-03-22T07:40:57.298Z,50.63
2018-03-22T07:41:59.238Z,39.38
2018-03-22T07:42:59.164Z,61.88
2018-03-22T07:43:57.291Z,84.38
2018-03-22T07:44:57.759Z,84.38
2018-03-22T07:45:57.290Z,50.63
2018-03-22T07:46:57.377Z,45.00
2018-03-22T07:47:57.339Z,50.63
2018-03-22T07:48:57.315Z,39.38
2018-03-22T07:49:57.279Z,22.50
2018-03-22T07:50:57.281Z,22.50
2018-03-22T07:51:57.297Z,22.50
2018-03-22T07:52:58.277Z,28.13
2018-03-22T07:53:57.282Z,28.13
2018-03-22T07:54:57.503Z,33.75
2018-03-22T07:55:58.119Z,50.63
2018-03-22T07:56:57.268Z,45.00
2018-03-22T07:57:57.277Z,45.00
2018-03-22T07:58:57.326Z,56.25
2018-03-22T07:59:57.288Z,45.00
2018-03-22T08:00:57.287Z,45.00
2018-03-22T08:01:57.269Z,50.63
2018-03-22T08:02:57.280Z,39.38
2018-03-22T08:03:57.369Z,39.38
2018-03-22T08:04:57.320Z,39.38
2018-03-22T08:05:57.294Z,50.63
2018-03-22T08:06:57.254Z,33.75
2018-03-22T08:07:57.272Z,39.38
2018-03-22T08:08:57.258Z,39.38
2018-03-22T08:09:57.248Z,45.00
2018-03-22T08:10:57.256Z,61.88
2018-03-22T08:11:57.259Z,50.63
2018-03-22T08:12:57.274Z,45.00
2018-03-22T08:13:57.248Z,67.50
2018-03-22T08:14:59.409Z,67.50
2018-03-22T08:16:02.674Z,73.13
2018-03-22T08:16:58.205Z,61.88
2018-03-22T08:17:57.251Z,56.25
2018-03-22T08:18:57.238Z,50.63
2018-03-22T08:19:57.348Z,50.63
2018-03-22T08:20:58.223Z,50.63
2018-03-22T08:22:11.866Z,45.00
2018-03-22T08:22:57.245Z,50.63
2018-03-22T08:23:57.364Z,45.00
2018-03-22T08:24:57.393Z,56.25
2018-03-22T08:25:57.233Z,56.25
2018-03-22T08:26:57.239Z,45.00
2018-03-22T08:27:57.710Z,56.25
2018-03-22T08:28:57.241Z,56.25
2018-03-22T08:29:57.248Z,67.50
2018-03-22T08:30:57.224Z,78.75
2018-03-22T08:31:57.232Z,61.88
2018-03-22T08:32:57.222Z,56.25
2018-03-22T08:33:57.223Z,56.25
2018-03-22T08:34:57.224Z,67.50
2018-03-22T08:35:57.235Z,50.63
2018-03-22T08:36:57.720Z,50.63
2018-03-22T08:37:57.218Z,50.63
2018-03-22T08:38:57.217Z,50.63
2018-03-22T08:39:57.411Z,50.63
2018-03-22T08:40:57.870Z,56.25
2018-03-22T08:41:57.378Z,67.50
2018-03-22T08:42:57.213Z,61.88
2018-03-22T08:43:57.212Z,67.50
2018-03-22T08:44:57.411Z,56.25
2018-03-22T08:45:57.233Z,50.63
2018-03-22T08:46:57.205Z,50.63
2018-03-22T08:47:57.216Z,50.63
2018-03-22T08:48:57.291Z,67.50
2018-03-22T08:49:57.325Z,56.25
2018-03-22T08:50:57.341Z,50.63
2018-03-22T08:51:57.201Z,61.88
2018-03-22T08:52:57.213Z,56.25
2018-03-22T08:53:57.295Z,45.00
2018-03-22T08:54:57.224Z,45.00
2018-03-22T08:55:57.200Z,45.00
2018-03-22T08:56:57.224Z,56.25
2018-03-22T08:57:57.208Z,56.25
2018-03-22T08:58:58.217Z,61.88
2018-03-22T08:59:57.193Z,61.88
2018-03-22T09:00:57.712Z,56.25
2018-03-22T09:01:57.267Z,45.00
2018-03-22T09:02:58.820Z,45.00
2018-03-22T09:03:58.398Z,45.00
2018-03-22T09:04:58.642Z,50.63
2018-03-22T09:05:57.175Z,61.88
2018-03-22T09:06:57.186Z,67.50
2018-03-22T09:07:57.202Z,67.50
2018-03-22T09:08:57.184Z,73.13
2018-03-22T09:09:57.200Z,78.75
2018-03-22T09:10:57.238Z,67.50
2018-03-22T09:11:57.165Z,73.13
2018-03-22T09:12:57.160Z,61.88
2018-03-22T09:13:57.186Z,73.13
2018-03-22T09:14:57.168Z,73.13
2018-03-22T09:15:57.170Z,73.13
2018-03-22T09:16:59.030Z,67.50
2018-03-22T09:17:57.211Z,67.50
2018-03-22T09:18:57.162Z,73.13
2018-03-22T09:19:57.169Z,84.38
2018-03-22T09:20:57.174Z,84.38
2018-03-22T09:21:57.202Z,90.00
2018-03-22T09:22:57.168Z,90.00
2018-03-22T09:23:57.161Z,78.75
2018-03-22T09:24:57.193Z,84.38
2018-03-22T09:25:57.174Z,106.88
2018-03-22T09:26:57.156Z,95.63
2018-03-22T09:27:57.720Z,106.88
2018-03-22T09:28:57.146Z,95.63
2018-03-22T09:29:57.190Z,129.38
2018-03-22T09:30:57.164Z,112.50
2018-03-22T09:31:57.148Z,106.88
2018-03-22T09:32:57.439Z,146.25
2018-03-22T09:33:57.166Z,146.25
2018-03-22T09:34:57.182Z,163.13
2018-03-22T09:35:57.194Z,140.63
2018-03-22T09:36:57.141Z,123.75
2018-03-22T09:37:57.161Z,123.75
2018-03-22T09:38:57.148Z,106.88
2018-03-22T09:39:57.134Z,106.88
2018-03-22T09:40:57.138Z,118.13
2018-03-22T09:41:57.139Z,118.13
2018-03-22T09:42:57.145Z,112.50
2018-03-22T09:43:57.619Z,112.50
2018-03-22T09:44:57.182Z,84.38
2018-03-22T09:45:57.205Z,78.75
2018-03-22T09:46:57.720Z,90.00
2018-03-22T09:47:57.143Z,84.38
2018-03-22T09:48:57.152Z,78.75
2018-03-22T09:49:57.142Z,78.75
2018-03-22T09:50:57.186Z,78.75
2018-03-22T09:51:57.148Z,78.75
2018-03-22T09:52:57.124Z,95.63
2018-03-22T09:53:58.034Z,101.25
2018-03-22T09:54:57.133Z,95.63
2018-03-22T09:55:57.125Z,73.13
2018-03-22T09:56:57.164Z,78.75
2018-03-22T09:57:57.137Z,90.00
2018-03-22T09:58:57.195Z,101.25
2018-03-22T09:59:57.121Z,106.88
2018-03-22T10:00:57.723Z,118.13
2018-03-22T10:01:57.128Z,129.38
2018-03-22T10:02:57.140Z,123.75
2018-03-22T10:03:57.125Z,118.13
2018-03-22T10:04:57.130Z,112.50
2018-03-22T10:05:57.127Z,135.00
2018-03-22T10:06:57.114Z,180.00
2018-03-22T10:07:57.114Z,151.88
2018-03-22T10:08:57.198Z,135.00
2018-03-22T10:09:59.753Z,118.13
2018-03-22T10:10:57.109Z,118.13
2018-03-22T10:11:57.258Z,118.13
2018-03-22T10:12:57.116Z,140.63
2018-03-22T10:13:57.110Z,135.00
2018-03-22T10:14:57.120Z,151.88
2018-03-22T10:15:57.113Z,140.63
2018-03-22T10:16:57.120Z,129.38
2018-03-22T10:17:57.105Z,112.50
2018-03-22T10:18:57.136Z,101.25
2018-03-22T10:19:57.096Z,95.63
2018-03-22T10:20:57.107Z,95.63
2018-03-22T10:21:57.116Z,112.50
2018-03-22T10:22:57.124Z,135.00
2018-03-22T10:23:57.133Z,118.13
2018-03-22T10:24:57.191Z,118.13
2018-03-22T10:25:57.113Z,118.13
2018-03-22T10:26:57.133Z,106.88
2018-03-22T10:27:57.158Z,123.75
2018-03-22T10:28:57.113Z,135.00
2018-03-22T10:29:57.103Z,129.38
2018-03-22T10:30:57.104Z,101.25
2018-03-22T10:31:57.110Z,146.25
2018-03-22T10:32:57.109Z,129.38
2018-03-22T10:33:57.108Z,146.25
2018-03-22T10:34:57.140Z,146.25
2018-03-22T10:35:57.156Z,123.75
2018-03-22T10:36:57.135Z,140.63
2018-03-22T10:37:57.119Z,185.63
2018-03-22T10:38:57.114Z,140.63
2018-03-22T10:39:57.737Z,146.25
2018-03-22T10:40:57.743Z,163.13
2018-03-22T10:41:57.195Z,191.25
2018-03-22T10:42:57.143Z,180.00
2018-03-22T10:43:57.928Z,168.75
2018-03-22T10:44:57.404Z,196.88
2018-03-22T10:45:57.344Z,151.88
2018-03-22T10:46:57.140Z,112.50
2018-03-22T10:47:57.105Z,106.88
2018-03-22T10:48:57.155Z,106.88
2018-03-22T10:49:57.146Z,118.13
2018-03-22T10:50:57.825Z,118.13
2018-03-22T10:51:57.119Z,191.25
2018-03-22T10:52:57.110Z,202.50
2018-03-22T10:53:57.124Z,135.00
2018-03-22T10:54:57.102Z,118.13
2018-03-22T10:55:57.120Z,112.50
2018-03-22T10:56:57.097Z,140.63
2018-03-22T10:57:57.109Z,168.75
2018-03-22T10:58:57.179Z,174.38
2018-03-22T10:59:57.092Z,140.63
2018-03-22T11:00:57.122Z,185.63
2018-03-22T11:01:57.101Z,174.38
2018-03-22T11:02:57.127Z,185.63
2018-03-22T11:03:57.109Z,146.25
2018-03-22T11:04:57.123Z,208.13
2018-03-22T11:05:57.122Z,225.00
2018-03-22T11:06:57.102Z,163.13
2018-03-22T11:07:57.106Z,146.25
2018-03-22T11:08:57.106Z,241.88
2018-03-22T11:09:57.120Z,275.63
2018-03-22T11:10:57.104Z,225.00
2018-03-22T11:11:57.737Z,281.25
2018-03-22T11:12:57.109Z,213.75
2018-03-22T11:13:57.128Z,225.00
2018-03-22T11:14:57.104Z,264.38
2018-03-22T11:15:57.101Z,405.00
2018-03-22T11:16:57.113Z,393.75
2018-03-22T11:17:57.107Z,466.88
2018-03-22T11:18:57.228Z,405.00
2018-03-22T11:19:57.112Z,371.25
2018-03-22T11:20:57.137Z,326.25
2018-03-22T11:21:57.141Z,326.25
2018-03-22T11:22:57.107Z,303.75
2018-03-22T11:23:57.108Z,275.63
2018-03-22T11:24:57.111Z,298.13
2018-03-22T11:25:57.114Z,196.88
2018-03-22T11:26:57.123Z,196.88
2018-03-22T11:27:57.767Z,191.25
2018-03-22T11:28:57.293Z,225.00
2018-03-22T11:29:57.111Z,230.63
2018-03-22T11:30:57.116Z,225.00
2018-03-22T11:31:57.147Z,264.38
2018-03-22T11:32:57.115Z,315.00
2018-03-22T11:33:57.127Z,174.38
2018-03-22T11:34:57.123Z,202.50
2018-03-22T11:35:57.153Z,275.63
2018-03-22T11:36:57.127Z,225.00
2018-03-22T11:37:57.137Z,185.63
2018-03-22T11:38:57.126Z,135.00
2018-03-22T11:39:57.189Z,106.88
2018-03-22T11:40:57.131Z,101.25
2018-03-22T11:41:57.138Z,78.75
2018-03-22T11:42:57.133Z,90.00
2018-03-22T11:43:57.137Z,106.88
2018-03-22T11:44:57.135Z,95.63
2018-03-22T11:45:57.149Z,95.63
2018-03-22T11:46:57.134Z,78.75
2018-03-22T11:47:57.137Z,67.50
2018-03-22T11:48:57.146Z,73.13
2018-03-22T11:49:57.751Z,78.75
2018-03-22T11:50:57.144Z,84.38
2018-03-22T11:51:57.137Z,78.75
2018-03-22T11:52:57.143Z,106.88
2018-03-22T11:53:57.152Z,90.00
2018-03-22T11:54:57.154Z,95.63
2018-03-22T11:55:57.158Z,101.25
2018-03-22T11:56:57.138Z,106.88
2018-03-22T11:57:57.147Z,101.25
2018-03-22T11:58:57.143Z,95.63
2018-03-22T11:59:57.148Z,90.00
2018-03-22T12:00:57.138Z,90.00
2018-03-22T12:01:57.159Z,78.75
2018-03-22T12:02:57.191Z,78.75
2018-03-22T12:03:57.171Z,73.13
2018-03-22T12:04:57.143Z,73.13
2018-03-22T12:05:57.204Z,78.75
2018-03-22T12:06:57.145Z,73.13
2018-03-22T12:07:57.153Z,78.75
2018-03-22T12:08:57.150Z,67.50
2018-03-22T12:09:57.149Z,61.88
2018-03-22T12:10:57.166Z,67.50
2018-03-22T12:11:57.162Z,67.50
2018-03-22T12:12:57.152Z,73.13
2018-03-22T12:13:57.165Z,73.13
2018-03-22T12:14:57.162Z,73.13
2018-03-22T12:15:57.328Z,67.50
2018-03-22T12:16:57.171Z,67.50
2018-03-22T12:17:57.163Z,61.88
2018-03-22T12:18:57.162Z,78.75
2018-03-22T12:19:57.172Z,78.75
2018-03-22T12:20:57.762Z,84.38
2018-03-22T12:21:57.157Z,90.00
2018-03-22T12:22:57.155Z,106.88
2018-03-22T12:23:57.213Z,123.75
2018-03-22T12:24:57.184Z,151.88
2018-03-22T12:25:57.161Z,196.88
2018-03-22T12:26:57.165Z,236.25
2018-03-22T12:27:57.168Z,286.88
2018-03-22T12:28:57.177Z,331.88
2018-03-22T12:29:57.165Z,388.13
2018-03-22T12:30:57.169Z,410.63
2018-03-22T12:31:57.160Z,399.38
2018-03-22T12:32:57.177Z,382.50
2018-03-22T12:33:57.165Z,360.00
2018-03-22T12:34:57.174Z,337.50
2018-03-22T12:35:57.191Z,331.88
2018-03-22T12:36:57.190Z,343.13
2018-03-22T12:37:57.184Z,320.63
2018-03-22T12:38:57.178Z,281.25
2018-03-22T12:39:57.171Z,247.50
2018-03-22T12:40:57.176Z,213.75
2018-03-22T12:41:57.175Z,219.38
2018-03-22T12:42:57.183Z,219.38
2018-03-22T12:43:57.767Z,208.13
2018-03-22T12:44:57.192Z,168.75
2018-03-22T12:45:57.195Z,157.50
2018-03-22T12:46:57.185Z,140.63
2018-03-22T12:47:57.197Z,140.63
2018-03-22T12:48:57.766Z,118.13
2018-03-22T12:49:57.691Z,112.50
2018-03-22T12:50:57.202Z,112.50
2018-03-22T12:51:57.185Z,106.88
2018-03-22T12:52:57.197Z,95.63
2018-03-22T12:53:57.205Z,84.38
2018-03-22T12:54:57.187Z,106.88
2018-03-22T12:55:57.210Z,112.50
2018-03-22T12:56:57.313Z,101.25
2018-03-22T12:57:57.252Z,118.13
2018-03-22T12:58:57.243Z,112.50
2018-03-22T12:59:57.774Z,106.88